sensor_id;sensor_type;location;lat;lon;timestamp;P1;durP1;ratioP1;P2;durP2;ratioP2
68993;SDS011;56054;50.968;5.816;2024-03-17T00:01:45;13.23;;;8.53;;
68993;SDS011;56054;50.968;5.816;2024-03-17T00:04:52;13.90;;;7.47;;
68993;SDS011;56054;50.968;5.816;2024-03-17T00:07:59;14.20;;;8.43;;
68993;SDS011;56054;50.968;5.816;2024-03-17T00:11:06;12.23;;;8.00;;
68993;SDS011;56054;50.968;5.816;2024-03-17T00:14:13;16.20;;;8.23;;
68993;SDS011;56054;50.968;5.816;2024-03-17T00:17:20;15.47;;;8.63;;
68993;SDS011;56054;50.968;5.816;2024-03-17T00:20:27;13.93;;;9.30;;
68993;SDS011;56054;50.968;5.816;2024-03-17T00:23:34;16.40;;;9.30;;
68993;SDS011;56054;50.968;5.816;2024-03-17T00:26:41;15.03;;;8.57;;
68993;SDS011;56054;50.968;5.816;2024-03-17T00:29:48;12.23;;;8.47;;
68993;SDS011;56054;50.968;5.816;2024-03-17T00:32:55;13.97;;;8.17;;
68993;SDS011;56054;50.968;5.816;2024-03-17T00:36:02;12.87;;;7.97;;
68993;SDS011;56054;50.968;5.816;2024-03-17T00:39:09;13.17;;;8.53;;
68993;SDS011;56054;50.968;5.816;2024-03-17T00:42:16;16.90;;;8.00;;
68993;SDS011;56054;50.968;5.816;2024-03-17T00:45:23;13.70;;;8.00;;
68993;SDS011;56054;50.968;5.816;2024-03-17T00:48:30;17.23;;;8.23;;
68993;SDS011;56054;50.968;5.816;2024-03-17T00:51:37;16.77;;;8.53;;
68993;SDS011;56054;50.968;5.816;2024-03-17T00:54:46;14.33;;;8.30;;
68993;SDS011;56054;50.968;5.816;2024-03-17T00:57:53;11.70;;;7.80;;
68993;SDS011;56054;50.968;5.816;2024-03-17T01:01:00;13.57;;;7.83;;
68993;SDS011;56054;50.968;5.816;2024-03-17T01:04:07;11.60;;;7.87;;
68993;SDS011;56054;50.968;5.816;2024-03-17T01:07:14;13.17;;;8.60;;
68993;SDS011;56054;50.968;5.816;2024-03-17T01:10:21;10.30;;;7.23;;
68993;SDS011;56054;50.968;5.816;2024-03-17T01:13:28;11.90;;;7.30;;
68993;SDS011;56054;50.968;5.816;2024-03-17T01:16:35;12.77;;;7.57;;
68993;SDS011;56054;50.968;5.816;2024-03-17T01:19:42;11.67;;;7.73;;
68993;SDS011;56054;50.968;5.816;2024-03-17T01:22:49;11.40;;;7.47;;
68993;SDS011;56054;50.968;5.816;2024-03-17T01:25:56;11.80;;;7.20;;
68993;SDS011;56054;50.968;5.816;2024-03-17T01:29:03;13.70;;;7.67;;
68993;SDS011;56054;50.968;5.816;2024-03-17T01:32:10;10.77;;;7.23;;
68993;SDS011;56054;50.968;5.816;2024-03-17T01:35:17;13.10;;;7.53;;
68993;SDS011;56054;50.968;5.816;2024-03-17T01:38:24;10.60;;;7.47;;
68993;SDS011;56054;50.968;5.816;2024-03-17T01:41:31;11.37;;;6.93;;
68993;SDS011;56054;50.968;5.816;2024-03-17T01:44:38;14.43;;;7.13;;
68993;SDS011;56054;50.968;5.816;2024-03-17T01:47:45;9.97;;;6.73;;
68993;SDS011;56054;50.968;5.816;2024-03-17T01:50:53;11.87;;;6.60;;
68993;SDS011;56054;50.968;5.816;2024-03-17T01:54:03;9.00;;;6.40;;
68993;SDS011;56054;50.968;5.816;2024-03-17T01:57:10;12.00;;;6.87;;
68993;SDS011;56054;50.968;5.816;2024-03-17T02:00:17;10.93;;;6.63;;
68993;SDS011;56054;50.968;5.816;2024-03-17T02:03:24;11.90;;;6.00;;
68993;SDS011;56054;50.968;5.816;2024-03-17T02:06:31;8.60;;;6.20;;
68993;SDS011;56054;50.968;5.816;2024-03-17T02:09:38;11.37;;;7.07;;
68993;SDS011;56054;50.968;5.816;2024-03-17T02:12:45;9.40;;;6.17;;
68993;SDS011;56054;50.968;5.816;2024-03-17T02:15:52;11.27;;;6.47;;
68993;SDS011;56054;50.968;5.816;2024-03-17T02:18:59;9.50;;;6.50;;
68993;SDS011;56054;50.968;5.816;2024-03-17T02:22:15;9.00;;;6.07;;
68993;SDS011;56054;50.968;5.816;2024-03-17T02:25:22;8.90;;;5.60;;
68993;SDS011;56054;50.968;5.816;2024-03-17T02:28:29;6.37;;;4.40;;
68993;SDS011;56054;50.968;5.816;2024-03-17T02:31:44;9.63;;;4.97;;
68993;SDS011;56054;50.968;5.816;2024-03-17T02:34:51;8.37;;;4.93;;
68993;SDS011;56054;50.968;5.816;2024-03-17T02:37:58;7.83;;;4.47;;
68993;SDS011;56054;50.968;5.816;2024-03-17T02:41:05;6.10;;;4.33;;
68993;SDS011;56054;50.968;5.816;2024-03-17T02:44:12;8.00;;;4.97;;
68993;SDS011;56054;50.968;5.816;2024-03-17T02:47:19;6.97;;;4.60;;
68993;SDS011;56054;50.968;5.816;2024-03-17T02:50:26;7.67;;;4.40;;
68993;SDS011;56054;50.968;5.816;2024-03-17T02:53:33;10.27;;;4.70;;
68993;SDS011;56054;50.968;5.816;2024-03-17T02:56:40;6.43;;;4.23;;
68993;SDS011;56054;50.968;5.816;2024-03-17T02:59:47;7.03;;;4.47;;
68993;SDS011;56054;50.968;5.816;2024-03-17T03:03:01;8.27;;;4.37;;
68993;SDS011;56054;50.968;5.816;2024-03-17T03:06:08;7.03;;;4.40;;
68993;SDS011;56054;50.968;5.816;2024-03-17T03:09:15;7.27;;;4.40;;
68993;SDS011;56054;50.968;5.816;2024-03-17T03:12:22;7.13;;;4.53;;
68993;SDS011;56054;50.968;5.816;2024-03-17T03:15:30;5.30;;;4.20;;
68993;SDS011;56054;50.968;5.816;2024-03-17T03:18:38;5.10;;;3.70;;
68993;SDS011;56054;50.968;5.816;2024-03-17T03:21:45;6.90;;;4.87;;
68993;SDS011;56054;50.968;5.816;2024-03-17T03:24:52;5.60;;;3.93;;
68993;SDS011;56054;50.968;5.816;2024-03-17T03:27:59;6.83;;;4.30;;
68993;SDS011;56054;50.968;5.816;2024-03-17T03:31:10;5.70;;;4.00;;
68993;SDS011;56054;50.968;5.816;2024-03-17T03:34:17;8.93;;;4.77;;
68993;SDS011;56054;50.968;5.816;2024-03-17T03:37:24;7.00;;;4.13;;
68993;SDS011;56054;50.968;5.816;2024-03-17T03:40:31;8.10;;;4.83;;
68993;SDS011;56054;50.968;5.816;2024-03-17T03:43:38;7.30;;;4.30;;
68993;SDS011;56054;50.968;5.816;2024-03-17T03:46:45;10.17;;;5.20;;
68993;SDS011;56054;50.968;5.816;2024-03-17T03:49:52;8.13;;;4.57;;
68993;SDS011;56054;50.968;5.816;2024-03-17T03:52:59;8.10;;;4.90;;
68993;SDS011;56054;50.968;5.816;2024-03-17T03:56:06;6.40;;;3.93;;
68993;SDS011;56054;50.968;5.816;2024-03-17T03:59:13;5.83;;;4.00;;
68993;SDS011;56054;50.968;5.816;2024-03-17T04:02:20;6.30;;;4.50;;
68993;SDS011;56054;50.968;5.816;2024-03-17T04:05:27;7.63;;;4.60;;
68993;SDS011;56054;50.968;5.816;2024-03-17T04:08:34;8.03;;;4.67;;
68993;SDS011;56054;50.968;5.816;2024-03-17T04:11:42;7.23;;;4.50;;
68993;SDS011;56054;50.968;5.816;2024-03-17T04:14:49;6.70;;;4.43;;
68993;SDS011;56054;50.968;5.816;2024-03-17T04:17:56;8.10;;;4.40;;
68993;SDS011;56054;50.968;5.816;2024-03-17T04:21:04;7.77;;;4.27;;
68993;SDS011;56054;50.968;5.816;2024-03-17T04:24:12;7.00;;;4.27;;
68993;SDS011;56054;50.968;5.816;2024-03-17T04:27:22;6.13;;;4.00;;
68993;SDS011;56054;50.968;5.816;2024-03-17T04:30:30;5.97;;;3.97;;
68993;SDS011;56054;50.968;5.816;2024-03-17T04:33:37;5.50;;;3.93;;
68993;SDS011;56054;50.968;5.816;2024-03-17T04:36:44;8.97;;;4.40;;
68993;SDS011;56054;50.968;5.816;2024-03-17T04:39:51;8.37;;;4.60;;
68993;SDS011;56054;50.968;5.816;2024-03-17T04:42:58;8.70;;;4.20;;
68993;SDS011;56054;50.968;5.816;2024-03-17T04:46:05;8.57;;;4.30;;
68993;SDS011;56054;50.968;5.816;2024-03-17T04:49:12;9.90;;;4.43;;
68993;SDS011;56054;50.968;5.816;2024-03-17T04:52:19;7.13;;;4.33;;
68993;SDS011;56054;50.968;5.816;2024-03-17T04:55:26;8.07;;;4.03;;
68993;SDS011;56054;50.968;5.816;2024-03-17T04:58:33;9.17;;;4.00;;
68993;SDS011;56054;50.968;5.816;2024-03-17T05:01:41;6.17;;;3.90;;
68993;SDS011;56054;50.968;5.816;2024-03-17T05:04:48;6.67;;;3.90;;
68993;SDS011;56054;50.968;5.816;2024-03-17T05:07:56;6.37;;;4.33;;
68993;SDS011;56054;50.968;5.816;2024-03-17T05:11:10;8.43;;;3.70;;
68993;SDS011;56054;50.968;5.816;2024-03-17T05:14:17;8.30;;;4.43;;
68993;SDS011;56054;50.968;5.816;2024-03-17T05:17:24;9.33;;;4.47;;
68993;SDS011;56054;50.968;5.816;2024-03-17T05:20:31;6.73;;;4.13;;
68993;SDS011;56054;50.968;5.816;2024-03-17T05:23:38;5.97;;;3.90;;
68993;SDS011;56054;50.968;5.816;2024-03-17T05:26:46;7.40;;;4.63;;
68993;SDS011;56054;50.968;5.816;2024-03-17T05:29:53;7.53;;;4.13;;
68993;SDS011;56054;50.968;5.816;2024-03-17T05:33:00;6.50;;;4.07;;
68993;SDS011;56054;50.968;5.816;2024-03-17T05:36:07;6.37;;;4.30;;
68993;SDS011;56054;50.968;5.816;2024-03-17T05:39:14;7.17;;;4.00;;
68993;SDS011;56054;50.968;5.816;2024-03-17T05:42:21;5.93;;;3.97;;
68993;SDS011;56054;50.968;5.816;2024-03-17T05:45:28;7.40;;;3.90;;
68993;SDS011;56054;50.968;5.816;2024-03-17T05:48:35;10.17;;;4.40;;
68993;SDS011;56054;50.968;5.816;2024-03-17T05:51:43;5.57;;;3.77;;
68993;SDS011;56054;50.968;5.816;2024-03-17T05:54:50;7.30;;;4.00;;
68993;SDS011;56054;50.968;5.816;2024-03-17T05:57:57;8.23;;;4.47;;
68993;SDS011;56054;50.968;5.816;2024-03-17T06:01:04;8.97;;;4.10;;
68993;SDS011;56054;50.968;5.816;2024-03-17T06:04:12;7.10;;;3.90;;
68993;SDS011;56054;50.968;5.816;2024-03-17T06:07:19;7.80;;;3.73;;
68993;SDS011;56054;50.968;5.816;2024-03-17T06:10:26;4.97;;;3.87;;
68993;SDS011;56054;50.968;5.816;2024-03-17T06:13:33;8.47;;;3.90;;
68993;SDS011;56054;50.968;5.816;2024-03-17T06:16:40;7.40;;;3.43;;
68993;SDS011;56054;50.968;5.816;2024-03-17T06:19:47;5.53;;;3.60;;
68993;SDS011;56054;50.968;5.816;2024-03-17T06:22:54;7.97;;;3.60;;
68993;SDS011;56054;50.968;5.816;2024-03-17T06:26:02;7.27;;;4.50;;
68993;SDS011;56054;50.968;5.816;2024-03-17T06:29:09;6.40;;;3.20;;
68993;SDS011;56054;50.968;5.816;2024-03-17T06:32:16;6.67;;;3.77;;
68993;SDS011;56054;50.968;5.816;2024-03-17T06:35:23;6.70;;;3.57;;
68993;SDS011;56054;50.968;5.816;2024-03-17T06:38:31;5.70;;;3.40;;
68993;SDS011;56054;50.968;5.816;2024-03-17T06:41:38;9.30;;;3.63;;
68993;SDS011;56054;50.968;5.816;2024-03-17T06:44:45;4.30;;;2.80;;
68993;SDS011;56054;50.968;5.816;2024-03-17T06:47:52;5.43;;;3.50;;
68993;SDS011;56054;50.968;5.816;2024-03-17T06:50:59;5.33;;;3.10;;
68993;SDS011;56054;50.968;5.816;2024-03-17T06:54:06;5.87;;;3.27;;
68993;SDS011;56054;50.968;5.816;2024-03-17T06:57:13;5.17;;;3.27;;
68993;SDS011;56054;50.968;5.816;2024-03-17T07:00:20;7.07;;;3.13;;
68993;SDS011;56054;50.968;5.816;2024-03-17T07:03:28;5.03;;;3.33;;
68993;SDS011;56054;50.968;5.816;2024-03-17T07:06:36;6.40;;;3.90;;
68993;SDS011;56054;50.968;5.816;2024-03-17T07:09:43;8.03;;;3.77;;
68993;SDS011;56054;50.968;5.816;2024-03-17T07:12:50;6.70;;;3.60;;
68993;SDS011;56054;50.968;5.816;2024-03-17T07:15:57;6.07;;;3.80;;
68993;SDS011;56054;50.968;5.816;2024-03-17T07:19:04;6.60;;;3.70;;
68993;SDS011;56054;50.968;5.816;2024-03-17T07:22:11;6.00;;;3.63;;
68993;SDS011;56054;50.968;5.816;2024-03-17T07:25:18;9.93;;;4.07;;
68993;SDS011;56054;50.968;5.816;2024-03-17T07:28:25;7.70;;;3.93;;
68993;SDS011;56054;50.968;5.816;2024-03-17T07:31:32;7.80;;;4.27;;
68993;SDS011;56054;50.968;5.816;2024-03-17T07:34:39;5.70;;;3.87;;
68993;SDS011;56054;50.968;5.816;2024-03-17T07:37:46;8.63;;;4.27;;
68993;SDS011;56054;50.968;5.816;2024-03-17T07:44:04;8.50;;;4.53;;
68993;SDS011;56054;50.968;5.816;2024-03-17T07:47:11;6.43;;;4.07;;
68993;SDS011;56054;50.968;5.816;2024-03-17T07:50:18;6.63;;;4.57;;
68993;SDS011;56054;50.968;5.816;2024-03-17T07:53:25;6.07;;;3.67;;
68993;SDS011;56054;50.968;5.816;2024-03-17T07:56:32;6.67;;;3.90;;
68993;SDS011;56054;50.968;5.816;2024-03-17T07:59:39;7.30;;;4.13;;
68993;SDS011;56054;50.968;5.816;2024-03-17T08:02:46;6.33;;;4.03;;
68993;SDS011;56054;50.968;5.816;2024-03-17T08:05:53;8.27;;;4.60;;
68993;SDS011;56054;50.968;5.816;2024-03-17T08:09:00;14.03;;;5.50;;
68993;SDS011;56054;50.968;5.816;2024-03-17T08:12:07;7.23;;;4.87;;
68993;SDS011;56054;50.968;5.816;2024-03-17T08:15:14;10.50;;;4.37;;
68993;SDS011;56054;50.968;5.816;2024-03-17T08:18:21;9.27;;;5.00;;
68993;SDS011;56054;50.968;5.816;2024-03-17T08:21:28;8.03;;;4.20;;
68993;SDS011;56054;50.968;5.816;2024-03-17T08:24:35;9.00;;;4.30;;
68993;SDS011;56054;50.968;5.816;2024-03-17T08:27:42;6.63;;;4.63;;
68993;SDS011;56054;50.968;5.816;2024-03-17T08:30:53;8.27;;;4.27;;
68993;SDS011;56054;50.968;5.816;2024-03-17T08:34:03;7.87;;;3.83;;
68993;SDS011;56054;50.968;5.816;2024-03-17T08:37:10;6.67;;;4.03;;
68993;SDS011;56054;50.968;5.816;2024-03-17T08:40:17;8.27;;;4.60;;
68993;SDS011;56054;50.968;5.816;2024-03-17T08:43:24;8.90;;;4.30;;
68993;SDS011;56054;50.968;5.816;2024-03-17T08:46:31;6.50;;;4.10;;
68993;SDS011;56054;50.968;5.816;2024-03-17T08:49:38;7.37;;;4.83;;
68993;SDS011;56054;50.968;5.816;2024-03-17T08:52:45;10.67;;;4.20;;
68993;SDS011;56054;50.968;5.816;2024-03-17T08:55:52;7.70;;;4.30;;
68993;SDS011;56054;50.968;5.816;2024-03-17T08:59:00;8.43;;;4.73;;
68993;SDS011;56054;50.968;5.816;2024-03-17T09:02:09;8.80;;;4.50;;
68993;SDS011;56054;50.968;5.816;2024-03-17T09:05:19;10.17;;;4.37;;
68993;SDS011;56054;50.968;5.816;2024-03-17T09:08:26;8.10;;;4.23;;
68993;SDS011;56054;50.968;5.816;2024-03-17T09:11:33;12.50;;;4.23;;
68993;SDS011;56054;50.968;5.816;2024-03-17T09:14:47;9.83;;;4.27;;
68993;SDS011;56054;50.968;5.816;2024-03-17T09:17:54;6.60;;;3.67;;
68993;SDS011;56054;50.968;5.816;2024-03-17T09:21:02;7.23;;;4.73;;
68993;SDS011;56054;50.968;5.816;2024-03-17T09:24:11;4.83;;;3.43;;
68993;SDS011;56054;50.968;5.816;2024-03-17T09:27:18;7.60;;;4.27;;
68993;SDS011;56054;50.968;5.816;2024-03-17T09:30:25;9.23;;;3.80;;
68993;SDS011;56054;50.968;5.816;2024-03-17T09:33:33;7.90;;;3.43;;
68993;SDS011;56054;50.968;5.816;2024-03-17T09:36:41;6.43;;;3.73;;
68993;SDS011;56054;50.968;5.816;2024-03-17T09:39:48;5.47;;;3.80;;
68993;SDS011;56054;50.968;5.816;2024-03-17T09:42:55;9.73;;;3.40;;
68993;SDS011;56054;50.968;5.816;2024-03-17T09:46:03;6.07;;;3.37;;
68993;SDS011;56054;50.968;5.816;2024-03-17T09:49:14;7.67;;;3.47;;
68993;SDS011;56054;50.968;5.816;2024-03-17T09:52:23;7.13;;;2.87;;
68993;SDS011;56054;50.968;5.816;2024-03-17T09:55:30;7.73;;;3.13;;
68993;SDS011;56054;50.968;5.816;2024-03-17T09:58:37;6.63;;;3.53;;
68993;SDS011;56054;50.968;5.816;2024-03-17T10:01:44;7.43;;;3.10;;
68993;SDS011;56054;50.968;5.816;2024-03-17T10:04:51;6.83;;;2.87;;
68993;SDS011;56054;50.968;5.816;2024-03-17T10:07:58;7.00;;;3.30;;
68993;SDS011;56054;50.968;5.816;2024-03-17T10:11:05;4.67;;;2.90;;
68993;SDS011;56054;50.968;5.816;2024-03-17T10:14:12;5.37;;;2.87;;
68993;SDS011;56054;50.968;5.816;2024-03-17T10:17:28;9.93;;;2.90;;
68993;SDS011;56054;50.968;5.816;2024-03-17T10:20:36;4.00;;;2.33;;
68993;SDS011;56054;50.968;5.816;2024-03-17T10:23:43;6.97;;;3.03;;
68993;SDS011;56054;50.968;5.816;2024-03-17T10:26:51;5.83;;;2.43;;
68993;SDS011;56054;50.968;5.816;2024-03-17T10:29:59;6.97;;;3.17;;
68993;SDS011;56054;50.968;5.816;2024-03-17T10:33:06;5.10;;;2.77;;
68993;SDS011;56054;50.968;5.816;2024-03-17T10:36:16;5.43;;;2.43;;
68993;SDS011;56054;50.968;5.816;2024-03-17T10:39:25;6.07;;;3.13;;
68993;SDS011;56054;50.968;5.816;2024-03-17T10:42:33;4.70;;;2.67;;
68993;SDS011;56054;50.968;5.816;2024-03-17T10:45:40;5.63;;;2.80;;
68993;SDS011;56054;50.968;5.816;2024-03-17T10:48:47;6.07;;;2.57;;
68993;SDS011;56054;50.968;5.816;2024-03-17T10:51:57;6.93;;;2.53;;
68993;SDS011;56054;50.968;5.816;2024-03-17T10:55:07;5.30;;;2.47;;
68993;SDS011;56054;50.968;5.816;2024-03-17T11:01:21;5.30;;;2.37;;
68993;SDS011;56054;50.968;5.816;2024-03-17T11:04:28;7.93;;;2.57;;
68993;SDS011;56054;50.968;5.816;2024-03-17T11:07:35;5.73;;;2.87;;
68993;SDS011;56054;50.968;5.816;2024-03-17T11:10:50;5.73;;;2.37;;
68993;SDS011;56054;50.968;5.816;2024-03-17T11:14:17;4.80;;;2.30;;
68993;SDS011;56054;50.968;5.816;2024-03-17T11:17:26;5.90;;;2.20;;
68993;SDS011;56054;50.968;5.816;2024-03-17T11:20:33;7.73;;;2.97;;
68993;SDS011;56054;50.968;5.816;2024-03-17T11:23:42;7.17;;;2.73;;
68993;SDS011;56054;50.968;5.816;2024-03-17T11:26:49;5.87;;;2.63;;
68993;SDS011;56054;50.968;5.816;2024-03-17T11:29:56;5.80;;;2.50;;
68993;SDS011;56054;50.968;5.816;2024-03-17T11:33:47;4.67;;;2.23;;
68993;SDS011;56054;50.968;5.816;2024-03-17T11:36:55;4.50;;;2.20;;
68993;SDS011;56054;50.968;5.816;2024-03-17T11:40:02;4.63;;;1.97;;
68993;SDS011;56054;50.968;5.816;2024-03-17T11:43:29;3.33;;;2.07;;
68993;SDS011;56054;50.968;5.816;2024-03-17T11:46:36;8.33;;;2.30;;
68993;SDS011;56054;50.968;5.816;2024-03-17T11:49:44;3.93;;;2.07;;
68993;SDS011;56054;50.968;5.816;2024-03-17T11:52:57;4.20;;;2.13;;
68993;SDS011;56054;50.968;5.816;2024-03-17T11:56:04;4.17;;;2.10;;
68993;SDS011;56054;50.968;5.816;2024-03-17T11:59:11;4.83;;;1.90;;
68993;SDS011;56054;50.968;5.816;2024-03-17T12:02:19;7.00;;;2.30;;
68993;SDS011;56054;50.968;5.816;2024-03-17T12:05:27;3.20;;;1.80;;
68993;SDS011;56054;50.968;5.816;2024-03-17T12:08:34;3.70;;;1.90;;
68993;SDS011;56054;50.968;5.816;2024-03-17T12:11:41;5.80;;;2.40;;
68993;SDS011;56054;50.968;5.816;2024-03-17T12:14:49;5.93;;;2.00;;
68993;SDS011;56054;50.968;5.816;2024-03-17T12:17:57;3.70;;;1.50;;
68993;SDS011;56054;50.968;5.816;2024-03-17T12:21:04;5.03;;;1.80;;
68993;SDS011;56054;50.968;5.816;2024-03-17T12:24:21;2.60;;;1.75;;
68993;SDS011;56054;50.968;5.816;2024-03-17T12:27:29;5.30;;;1.73;;
68993;SDS011;56054;50.968;5.816;2024-03-17T12:30:36;5.90;;;1.90;;
68993;SDS011;56054;50.968;5.816;2024-03-17T12:33:43;6.47;;;1.63;;
68993;SDS011;56054;50.968;5.816;2024-03-17T12:36:50;4.72;;;1.60;;
68993;SDS011;56054;50.968;5.816;2024-03-17T12:39:57;7.87;;;2.17;;
68993;SDS011;56054;50.968;5.816;2024-03-17T12:43:04;3.38;;;1.63;;
68993;SDS011;56054;50.968;5.816;2024-03-17T12:46:11;5.73;;;2.00;;
68993;SDS011;56054;50.968;5.816;2024-03-17T12:49:20;5.75;;;2.00;;
68993;SDS011;56054;50.968;5.816;2024-03-17T12:52:28;3.00;;;1.50;;
68993;SDS011;56054;50.968;5.816;2024-03-17T12:55:35;8.52;;;1.70;;
68993;SDS011;56054;50.968;5.816;2024-03-17T12:58:42;4.07;;;1.65;;
68993;SDS011;56054;50.968;5.816;2024-03-17T13:01:49;2.80;;;1.38;;
68993;SDS011;56054;50.968;5.816;2024-03-17T13:08:25;6.38;;;2.10;;
68993;SDS011;56054;50.968;5.816;2024-03-17T13:11:32;7.22;;;1.70;;
68993;SDS011;56054;50.968;5.816;2024-03-17T13:14:39;8.75;;;1.95;;
68993;SDS011;56054;50.968;5.816;2024-03-17T13:17:46;6.07;;;2.20;;
68993;SDS011;56054;50.968;5.816;2024-03-17T13:20:53;7.20;;;2.00;;
68993;SDS011;56054;50.968;5.816;2024-03-17T13:24:00;4.70;;;2.25;;
68993;SDS011;56054;50.968;5.816;2024-03-17T13:27:07;5.80;;;2.20;;
68993;SDS011;56054;50.968;5.816;2024-03-17T13:30:15;3.35;;;1.80;;
68993;SDS011;56054;50.968;5.816;2024-03-17T13:33:23;4.07;;;2.13;;
68993;SDS011;56054;50.968;5.816;2024-03-17T13:36:30;6.50;;;2.90;;
68993;SDS011;56054;50.968;5.816;2024-03-17T13:39:37;4.88;;;2.42;;
68993;SDS011;56054;50.968;5.816;2024-03-17T13:42:54;6.53;;;2.00;;
68993;SDS011;56054;50.968;5.816;2024-03-17T13:46:01;4.75;;;2.50;;
68993;SDS011;56054;50.968;5.816;2024-03-17T13:49:08;7.25;;;2.70;;
68993;SDS011;56054;50.968;5.816;2024-03-17T13:52:15;4.75;;;2.58;;
68993;SDS011;56054;50.968;5.816;2024-03-17T13:55:23;6.47;;;2.33;;
68993;SDS011;56054;50.968;5.816;2024-03-17T13:58:31;8.55;;;2.10;;
68993;SDS011;56054;50.968;5.816;2024-03-17T14:01:38;6.30;;;2.13;;
68993;SDS011;56054;50.968;5.816;2024-03-17T14:04:45;11.05;;;5.10;;
68993;SDS011;56054;50.968;5.816;2024-03-17T14:07:53;3.83;;;1.90;;
68993;SDS011;56054;50.968;5.816;2024-03-17T14:11:00;4.53;;;1.95;;
68993;SDS011;56054;50.968;5.816;2024-03-17T14:14:07;5.03;;;1.75;;
68993;SDS011;56054;50.968;5.816;2024-03-17T14:17:14;4.75;;;2.25;;
68993;SDS011;56054;50.968;5.816;2024-03-17T14:20:21;10.10;;;3.05;;
68993;SDS011;56054;50.968;5.816;2024-03-17T14:23:28;9.80;;;2.65;;
68993;SDS011;56054;50.968;5.816;2024-03-17T14:26:35;11.05;;;4.57;;
68993;SDS011;56054;50.968;5.816;2024-03-17T14:29:45;5.00;;;2.47;;
68993;SDS011;56054;50.968;5.816;2024-03-17T14:32:59;2.88;;;1.75;;
68993;SDS011;56054;50.968;5.816;2024-03-17T14:36:06;4.78;;;2.10;;
68993;SDS011;56054;50.968;5.816;2024-03-17T14:39:13;4.78;;;2.10;;
68993;SDS011;56054;50.968;5.816;2024-03-17T14:42:20;7.07;;;1.85;;
68993;SDS011;56054;50.968;5.816;2024-03-17T14:45:27;3.42;;;2.03;;
68993;SDS011;56054;50.968;5.816;2024-03-17T14:48:34;5.22;;;2.08;;
68993;SDS011;56054;50.968;5.816;2024-03-17T14:51:41;5.07;;;1.50;;
68993;SDS011;56054;50.968;5.816;2024-03-17T14:54:48;5.82;;;1.90;;
68993;SDS011;56054;50.968;5.816;2024-03-17T14:57:55;4.10;;;1.48;;
68993;SDS011;56054;50.968;5.816;2024-03-17T15:01:02;5.63;;;1.52;;
68993;SDS011;56054;50.968;5.816;2024-03-17T15:04:09;3.53;;;1.40;;
68993;SDS011;56054;50.968;5.816;2024-03-17T15:07:16;3.17;;;1.40;;
68993;SDS011;56054;50.968;5.816;2024-03-17T15:10:23;4.15;;;1.70;;
68993;SDS011;56054;50.968;5.816;2024-03-17T15:13:30;3.47;;;1.60;;
68993;SDS011;56054;50.968;5.816;2024-03-17T15:16:37;3.50;;;1.50;;
68993;SDS011;56054;50.968;5.816;2024-03-17T15:19:47;6.28;;;1.30;;
68993;SDS011;56054;50.968;5.816;2024-03-17T15:22:54;6.80;;;1.73;;
68993;SDS011;56054;50.968;5.816;2024-03-17T15:26:04;4.45;;;1.50;;
68993;SDS011;56054;50.968;5.816;2024-03-17T15:29:12;3.17;;;1.33;;
68993;SDS011;56054;50.968;5.816;2024-03-17T15:32:19;5.13;;;1.33;;
68993;SDS011;56054;50.968;5.816;2024-03-17T15:35:26;4.68;;;1.50;;
68993;SDS011;56054;50.968;5.816;2024-03-17T15:38:34;2.75;;;1.45;;
68993;SDS011;56054;50.968;5.816;2024-03-17T15:41:41;3.67;;;1.05;;
68993;SDS011;56054;50.968;5.816;2024-03-17T15:44:48;3.45;;;1.30;;
68993;SDS011;56054;50.968;5.816;2024-03-17T15:47:55;4.80;;;1.48;;
68993;SDS011;56054;50.968;5.816;2024-03-17T15:51:02;4.93;;;1.17;;
68993;SDS011;56054;50.968;5.816;2024-03-17T15:54:09;3.03;;;1.13;;
68993;SDS011;56054;50.968;5.816;2024-03-17T15:57:16;4.13;;;1.20;;
68993;SDS011;56054;50.968;5.816;2024-03-17T16:00:23;6.55;;;0.95;;
68993;SDS011;56054;50.968;5.816;2024-03-17T16:03:31;3.38;;;1.20;;
68993;SDS011;56054;50.968;5.816;2024-03-17T16:06:39;3.95;;;1.10;;
68993;SDS011;56054;50.968;5.816;2024-03-17T16:09:46;3.00;;;0.70;;
68993;SDS011;56054;50.968;5.816;2024-03-17T16:12:53;4.10;;;0.93;;
68993;SDS011;56054;50.968;5.816;2024-03-17T16:16:00;4.30;;;1.13;;
68993;SDS011;56054;50.968;5.816;2024-03-17T16:19:07;3.47;;;1.05;;
68993;SDS011;56054;50.968;5.816;2024-03-17T16:22:14;2.30;;;1.00;;
68993;SDS011;56054;50.968;5.816;2024-03-17T16:25:21;3.08;;;1.00;;
68993;SDS011;56054;50.968;5.816;2024-03-17T16:28:28;1.95;;;0.88;;
68993;SDS011;56054;50.968;5.816;2024-03-17T16:31:35;2.38;;;0.90;;
68993;SDS011;56054;50.968;5.816;2024-03-17T16:34:44;3.85;;;0.98;;
68993;SDS011;56054;50.968;5.816;2024-03-17T16:37:51;3.08;;;1.15;;
68993;SDS011;56054;50.968;5.816;2024-03-17T16:40:58;2.92;;;1.08;;
68993;SDS011;56054;50.968;5.816;2024-03-17T16:44:08;4.07;;;1.10;;
68993;SDS011;56054;50.968;5.816;2024-03-17T16:47:30;3.75;;;1.02;;
68993;SDS011;56054;50.968;5.816;2024-03-17T16:50:38;2.75;;;1.20;;
68993;SDS011;56054;50.968;5.816;2024-03-17T16:53:46;5.35;;;1.35;;
68993;SDS011;56054;50.968;5.816;2024-03-17T16:56:53;2.63;;;1.30;;
68993;SDS011;56054;50.968;5.816;2024-03-17T17:00:04;3.53;;;1.02;;
68993;SDS011;56054;50.968;5.816;2024-03-17T17:03:12;2.45;;;1.42;;
68993;SDS011;56054;50.968;5.816;2024-03-17T17:06:19;4.05;;;1.17;;
68993;SDS011;56054;50.968;5.816;2024-03-17T17:09:26;4.80;;;1.30;;
68993;SDS011;56054;50.968;5.816;2024-03-17T17:12:40;2.72;;;1.15;;
68993;SDS011;56054;50.968;5.816;2024-03-17T17:15:47;6.05;;;1.67;;
68993;SDS011;56054;50.968;5.816;2024-03-17T17:18:56;2.90;;;1.60;;
68993;SDS011;56054;50.968;5.816;2024-03-17T17:22:07;3.15;;;1.52;;
68993;SDS011;56054;50.968;5.816;2024-03-17T17:25:18;3.08;;;1.30;;
68993;SDS011;56054;50.968;5.816;2024-03-17T17:28:25;3.08;;;1.20;;
68993;SDS011;56054;50.968;5.816;2024-03-17T17:31:32;2.97;;;1.42;;
68993;SDS011;56054;50.968;5.816;2024-03-17T17:34:39;3.85;;;1.52;;
68993;SDS011;56054;50.968;5.816;2024-03-17T17:37:46;5.43;;;1.73;;
68993;SDS011;56054;50.968;5.816;2024-03-17T17:40:53;5.55;;;1.42;;
68993;SDS011;56054;50.968;5.816;2024-03-17T17:44:00;6.97;;;1.50;;
68993;SDS011;56054;50.968;5.816;2024-03-17T17:47:07;5.28;;;2.00;;
68993;SDS011;56054;50.968;5.816;2024-03-17T17:50:14;9.35;;;2.20;;
68993;SDS011;56054;50.968;5.816;2024-03-17T17:53:21;3.88;;;1.83;;
68993;SDS011;56054;50.968;5.816;2024-03-17T17:56:28;3.63;;;1.58;;
68993;SDS011;56054;50.968;5.816;2024-03-17T17:59:35;6.55;;;2.33;;
68993;SDS011;56054;50.968;5.816;2024-03-17T18:02:42;6.40;;;1.95;;
68993;SDS011;56054;50.968;5.816;2024-03-17T18:05:49;7.45;;;2.00;;
68993;SDS011;56054;50.968;5.816;2024-03-17T18:08:56;3.53;;;2.00;;
68993;SDS011;56054;50.968;5.816;2024-03-17T18:12:03;3.80;;;2.00;;
68993;SDS011;56054;50.968;5.816;2024-03-17T18:15:18;6.18;;;2.13;;
68993;SDS011;56054;50.968;5.816;2024-03-17T18:18:25;5.53;;;1.98;;
68993;SDS011;56054;50.968;5.816;2024-03-17T18:21:32;5.87;;;2.00;;
68993;SDS011;56054;50.968;5.816;2024-03-17T18:24:39;2.92;;;2.05;;
68993;SDS011;56054;50.968;5.816;2024-03-17T18:27:46;9.88;;;2.55;;
68993;SDS011;56054;50.968;5.816;2024-03-17T18:30:53;3.83;;;2.28;;
68993;SDS011;56054;50.968;5.816;2024-03-17T18:34:00;9.60;;;2.15;;
68993;SDS011;56054;50.968;5.816;2024-03-17T18:37:07;6.60;;;2.60;;
68993;SDS011;56054;50.968;5.816;2024-03-17T18:40:15;6.82;;;2.20;;
68993;SDS011;56054;50.968;5.816;2024-03-17T18:43:21;5.63;;;2.35;;
68993;SDS011;56054;50.968;5.816;2024-03-17T18:46:28;6.95;;;2.28;;
68993;SDS011;56054;50.968;5.816;2024-03-17T18:49:35;5.65;;;2.17;;
68993;SDS011;56054;50.968;5.816;2024-03-17T18:52:45;6.80;;;2.10;;
68993;SDS011;56054;50.968;5.816;2024-03-17T18:55:57;6.93;;;3.13;;
68993;SDS011;56054;50.968;5.816;2024-03-17T18:59:07;4.37;;;2.43;;